sensor_id;sensor_type;location;lat;lon;timestamp;P1;durP1;ratioP1;P2;durP2;ratioP2
74375;SDS011;62812;55.188;61.302;2024-01-30T00:00:43;11.65;;;5.03;;
74375;SDS011;62812;55.188;61.302;2024-01-30T00:03:15;11.60;;;4.75;;
74375;SDS011;62812;55.188;61.302;2024-01-30T00:05:47;13.07;;;5.00;;
74375;SDS011;62812;55.188;61.302;2024-01-30T00:08:13;10.98;;;4.40;;
74375;SDS011;62812;55.188;61.302;2024-01-30T00:10:40;11.68;;;5.15;;
74375;SDS011;62812;55.188;61.302;2024-01-30T00:13:07;11.23;;;4.70;;
74375;SDS011;62812;55.188;61.302;2024-01-30T00:15:34;10.07;;;4.82;;
74375;SDS011;62812;55.188;61.302;2024-01-30T00:18:01;12.85;;;5.38;;
74375;SDS011;62812;55.188;61.302;2024-01-30T00:20:28;12.57;;;4.97;;
74375;SDS011;62812;55.188;61.302;2024-01-30T00:22:57;12.45;;;5.47;;
74375;SDS011;62812;55.188;61.302;2024-01-30T00:25:24;12.65;;;5.82;;
74375;SDS011;62812;55.188;61.302;2024-01-30T00:27:50;18.00;;;8.23;;
74375;SDS011;62812;55.188;61.302;2024-01-30T00:30:17;14.77;;;6.70;;
74375;SDS011;62812;55.188;61.302;2024-01-30T00:32:44;12.65;;;6.07;;
74375;SDS011;62812;55.188;61.302;2024-01-30T00:35:11;13.73;;;5.75;;
74375;SDS011;62812;55.188;61.302;2024-01-30T00:37:38;14.50;;;5.85;;
74375;SDS011;62812;55.188;61.302;2024-01-30T00:40:07;15.40;;;6.05;;
74375;SDS011;62812;55.188;61.302;2024-01-30T00:42:36;14.00;;;5.80;;
74375;SDS011;62812;55.188;61.302;2024-01-30T00:45:03;13.65;;;5.55;;
74375;SDS011;62812;55.188;61.302;2024-01-30T00:47:30;16.00;;;6.70;;
74375;SDS011;62812;55.188;61.302;2024-01-30T00:49:59;13.50;;;5.95;;
74375;SDS011;62812;55.188;61.302;2024-01-30T00:52:25;16.33;;;7.15;;
74375;SDS011;62812;55.188;61.302;2024-01-30T00:54:52;17.75;;;7.93;;
74375;SDS011;62812;55.188;61.302;2024-01-30T00:57:20;21.75;;;7.85;;
74375;SDS011;62812;55.188;61.302;2024-01-30T00:59:47;15.50;;;6.82;;
74375;SDS011;62812;55.188;61.302;2024-01-30T01:02:14;20.20;;;8.77;;
74375;SDS011;62812;55.188;61.302;2024-01-30T01:04:43;17.83;;;7.72;;
74375;SDS011;62812;55.188;61.302;2024-01-30T01:07:10;19.75;;;7.80;;
74375;SDS011;62812;55.188;61.302;2024-01-30T01:09:37;16.15;;;7.07;;
74375;SDS011;62812;55.188;61.302;2024-01-30T01:12:04;16.13;;;6.93;;
74375;SDS011;62812;55.188;61.302;2024-01-30T01:14:33;19.10;;;7.93;;
74375;SDS011;62812;55.188;61.302;2024-01-30T01:17:00;14.73;;;6.80;;
74375;SDS011;62812;55.188;61.302;2024-01-30T01:19:28;16.15;;;7.10;;
74375;SDS011;62812;55.188;61.302;2024-01-30T01:21:56;13.57;;;6.82;;
74375;SDS011;62812;55.188;61.302;2024-01-30T01:24:23;14.93;;;7.55;;
74375;SDS011;62812;55.188;61.302;2024-01-30T01:26:50;13.23;;;6.60;;
74375;SDS011;62812;55.188;61.302;2024-01-30T01:29:17;21.17;;;8.95;;
74375;SDS011;62812;55.188;61.302;2024-01-30T01:31:45;17.67;;;7.20;;
74375;SDS011;62812;55.188;61.302;2024-01-30T01:34:12;16.17;;;7.90;;
74375;SDS011;62812;55.188;61.302;2024-01-30T01:36:39;18.85;;;7.03;;
74375;SDS011;62812;55.188;61.302;2024-01-30T01:39:06;19.95;;;7.45;;
74375;SDS011;62812;55.188;61.302;2024-01-30T01:41:33;14.52;;;7.40;;
74375;SDS011;62812;55.188;61.302;2024-01-30T01:44:00;17.88;;;7.68;;
74375;SDS011;62812;55.188;61.302;2024-01-30T01:46:27;13.55;;;7.20;;
74375;SDS011;62812;55.188;61.302;2024-01-30T01:48:57;13.63;;;6.25;;
74375;SDS011;62812;55.188;61.302;2024-01-30T01:51:24;17.20;;;7.15;;
74375;SDS011;62812;55.188;61.302;2024-01-30T01:53:53;15.35;;;7.10;;
74375;SDS011;62812;55.188;61.302;2024-01-30T01:56:21;14.32;;;6.53;;
74375;SDS011;62812;55.188;61.302;2024-01-30T01:58:48;15.05;;;7.30;;
74375;SDS011;62812;55.188;61.302;2024-01-30T02:01:17;16.55;;;7.40;;
74375;SDS011;62812;55.188;61.302;2024-01-30T02:03:46;15.77;;;6.72;;
74375;SDS011;62812;55.188;61.302;2024-01-30T02:06:15;17.27;;;7.47;;
74375;SDS011;62812;55.188;61.302;2024-01-30T02:08:42;21.90;;;7.95;;
74375;SDS011;62812;55.188;61.302;2024-01-30T02:11:09;19.13;;;7.78;;
74375;SDS011;62812;55.188;61.302;2024-01-30T02:13:37;28.10;;;10.55;;
74375;SDS011;62812;55.188;61.302;2024-01-30T02:16:04;25.20;;;9.65;;
74375;SDS011;62812;55.188;61.302;2024-01-30T02:18:31;24.80;;;10.40;;
74375;SDS011;62812;55.188;61.302;2024-01-30T02:21:18;19.48;;;9.02;;
74375;SDS011;62812;55.188;61.302;2024-01-30T02:23:46;25.77;;;10.25;;
74375;SDS011;62812;55.188;61.302;2024-01-30T02:26:14;25.55;;;10.68;;
74375;SDS011;62812;55.188;61.302;2024-01-30T02:28:41;24.98;;;9.68;;
74375;SDS011;62812;55.188;61.302;2024-01-30T02:31:08;27.63;;;11.02;;
74375;SDS011;62812;55.188;61.302;2024-01-30T02:33:35;25.17;;;9.30;;
74375;SDS011;62812;55.188;61.302;2024-01-30T02:36:02;24.08;;;9.07;;
74375;SDS011;62812;55.188;61.302;2024-01-30T02:38:33;19.90;;;8.23;;
74375;SDS011;62812;55.188;61.302;2024-01-30T02:41:00;20.33;;;8.32;;
74375;SDS011;62812;55.188;61.302;2024-01-30T02:43:30;24.88;;;9.25;;
74375;SDS011;62812;55.188;61.302;2024-01-30T02:46:00;22.65;;;8.82;;
74375;SDS011;62812;55.188;61.302;2024-01-30T02:48:27;25.90;;;10.20;;
74375;SDS011;62812;55.188;61.302;2024-01-30T02:50:54;26.98;;;11.10;;
74375;SDS011;62812;55.188;61.302;2024-01-30T02:53:21;36.47;;;11.70;;
74375;SDS011;62812;55.188;61.302;2024-01-30T02:55:50;29.33;;;12.10;;
74375;SDS011;62812;55.188;61.302;2024-01-30T02:58:17;47.05;;;16.15;;
74375;SDS011;62812;55.188;61.302;2024-01-30T03:00:55;64.40;;;20.30;;
74375;SDS011;62812;55.188;61.302;2024-01-30T03:03:22;64.20;;;21.38;;
74375;SDS011;62812;55.188;61.302;2024-01-30T03:05:49;80.95;;;24.65;;
74375;SDS011;62812;55.188;61.302;2024-01-30T03:08:18;79.25;;;27.85;;
74375;SDS011;62812;55.188;61.302;2024-01-30T03:10:45;72.45;;;24.27;;
74375;SDS011;62812;55.188;61.302;2024-01-30T03:13:16;61.30;;;22.98;;
74375;SDS011;62812;55.188;61.302;2024-01-30T03:15:43;51.90;;;21.95;;
74375;SDS011;62812;55.188;61.302;2024-01-30T03:18:10;60.63;;;23.48;;
74375;SDS011;62812;55.188;61.302;2024-01-30T03:20:36;55.78;;;19.70;;
74375;SDS011;62812;55.188;61.302;2024-01-30T03:23:03;52.53;;;18.70;;
74375;SDS011;62812;55.188;61.302;2024-01-30T03:25:30;39.55;;;15.32;;
74375;SDS011;62812;55.188;61.302;2024-01-30T03:27:57;53.38;;;22.05;;
74375;SDS011;62812;55.188;61.302;2024-01-30T03:30:25;50.67;;;19.17;;
74375;SDS011;62812;55.188;61.302;2024-01-30T03:32:52;52.08;;;19.45;;
74375;SDS011;62812;55.188;61.302;2024-01-30T03:35:19;38.25;;;15.25;;
74375;SDS011;62812;55.188;61.302;2024-01-30T03:37:48;42.28;;;14.98;;
74375;SDS011;62812;55.188;61.302;2024-01-30T03:40:15;32.42;;;13.75;;
74375;SDS011;62812;55.188;61.302;2024-01-30T03:42:43;29.77;;;12.00;;
74375;SDS011;62812;55.188;61.302;2024-01-30T03:45:10;19.50;;;10.50;;
74375;SDS011;62812;55.188;61.302;2024-01-30T03:47:38;29.50;;;12.60;;
74375;SDS011;62812;55.188;61.302;2024-01-30T03:50:05;28.63;;;11.00;;
74375;SDS011;62812;55.188;61.302;2024-01-30T03:52:32;29.38;;;12.15;;
74375;SDS011;62812;55.188;61.302;2024-01-30T03:54:59;32.20;;;13.40;;
74375;SDS011;62812;55.188;61.302;2024-01-30T03:57:28;31.77;;;13.55;;
74375;SDS011;62812;55.188;61.302;2024-01-30T03:59:55;31.83;;;12.07;;
74375;SDS011;62812;55.188;61.302;2024-01-30T04:02:22;32.95;;;13.65;;
74375;SDS011;62812;55.188;61.302;2024-01-30T04:04:53;25.73;;;13.70;;
74375;SDS011;62812;55.188;61.302;2024-01-30T04:07:25;28.20;;;11.13;;
74375;SDS011;62812;55.188;61.302;2024-01-30T04:09:52;25.88;;;12.57;;
74375;SDS011;62812;55.188;61.302;2024-01-30T04:12:20;25.65;;;11.93;;
74375;SDS011;62812;55.188;61.302;2024-01-30T04:14:47;24.83;;;10.68;;
74375;SDS011;62812;55.188;61.302;2024-01-30T04:17:13;30.73;;;11.70;;
74375;SDS011;62812;55.188;61.302;2024-01-30T04:19:40;24.40;;;9.88;;
74375;SDS011;62812;55.188;61.302;2024-01-30T04:22:08;24.30;;;10.10;;
74375;SDS011;62812;55.188;61.302;2024-01-30T04:24:37;29.00;;;12.38;;
74375;SDS011;62812;55.188;61.302;2024-01-30T04:27:05;29.58;;;14.13;;
74375;SDS011;62812;55.188;61.302;2024-01-30T04:29:38;36.95;;;15.32;;
74375;SDS011;62812;55.188;61.302;2024-01-30T04:32:05;25.33;;;10.90;;
74375;SDS011;62812;55.188;61.302;2024-01-30T04:34:32;25.00;;;11.57;;
74375;SDS011;62812;55.188;61.302;2024-01-30T04:36:59;23.98;;;9.98;;
74375;SDS011;62812;55.188;61.302;2024-01-30T04:39:27;22.60;;;10.25;;
74375;SDS011;62812;55.188;61.302;2024-01-30T04:41:54;25.73;;;9.38;;
74375;SDS011;62812;55.188;61.302;2024-01-30T04:44:21;18.92;;;8.23;;
74375;SDS011;62812;55.188;61.302;2024-01-30T04:46:47;12.70;;;6.85;;
74375;SDS011;62812;55.188;61.302;2024-01-30T04:49:14;13.15;;;7.07;;
74375;SDS011;62812;55.188;61.302;2024-01-30T04:51:41;17.65;;;6.72;;
74375;SDS011;62812;55.188;61.302;2024-01-30T04:54:07;15.27;;;7.40;;
74375;SDS011;62812;55.188;61.302;2024-01-30T04:56:35;21.75;;;7.50;;
74375;SDS011;62812;55.188;61.302;2024-01-30T04:59:02;13.23;;;6.28;;
74375;SDS011;62812;55.188;61.302;2024-01-30T05:01:29;20.75;;;6.85;;
74375;SDS011;62812;55.188;61.302;2024-01-30T05:03:56;16.33;;;7.03;;
74375;SDS011;62812;55.188;61.302;2024-01-30T05:06:25;13.65;;;6.50;;
74375;SDS011;62812;55.188;61.302;2024-01-30T05:08:52;17.27;;;7.50;;
74375;SDS011;62812;55.188;61.302;2024-01-30T05:11:19;15.88;;;6.82;;
74375;SDS011;62812;55.188;61.302;2024-01-30T05:13:47;18.23;;;5.75;;
74375;SDS011;62812;55.188;61.302;2024-01-30T05:16:13;16.10;;;6.28;;
74375;SDS011;62812;55.188;61.302;2024-01-30T05:18:40;15.10;;;6.10;;
74375;SDS011;62812;55.188;61.302;2024-01-30T05:21:06;14.43;;;6.00;;
74375;SDS011;62812;55.188;61.302;2024-01-30T05:23:33;23.13;;;9.35;;
74375;SDS011;62812;55.188;61.302;2024-01-30T05:25:59;16.50;;;7.50;;
74375;SDS011;62812;55.188;61.302;2024-01-30T05:28:27;15.00;;;6.57;;
74375;SDS011;62812;55.188;61.302;2024-01-30T05:30:55;15.70;;;6.25;;
74375;SDS011;62812;55.188;61.302;2024-01-30T05:33:22;14.05;;;6.15;;
74375;SDS011;62812;55.188;61.302;2024-01-30T05:35:49;14.50;;;5.97;;
74375;SDS011;62812;55.188;61.302;2024-01-30T05:38:16;15.27;;;5.78;;
74375;SDS011;62812;55.188;61.302;2024-01-30T05:40:42;13.63;;;5.43;;
74375;SDS011;62812;55.188;61.302;2024-01-30T05:43:09;13.60;;;5.85;;
74375;SDS011;62812;55.188;61.302;2024-01-30T05:45:36;12.57;;;5.53;;
74375;SDS011;62812;55.188;61.302;2024-01-30T05:48:04;14.55;;;6.45;;
74375;SDS011;62812;55.188;61.302;2024-01-30T05:50:31;14.63;;;5.75;;
74375;SDS011;62812;55.188;61.302;2024-01-30T05:52:57;23.38;;;7.55;;
74375;SDS011;62812;55.188;61.302;2024-01-30T05:55:24;18.48;;;7.53;;
74375;SDS011;62812;55.188;61.302;2024-01-30T05:57:50;14.80;;;6.07;;
74375;SDS011;62812;55.188;61.302;2024-01-30T06:00:18;13.63;;;4.90;;
74375;SDS011;62812;55.188;61.302;2024-01-30T06:02:45;17.85;;;6.07;;
74375;SDS011;62812;55.188;61.302;2024-01-30T06:05:13;18.55;;;6.50;;
74375;SDS011;62812;55.188;61.302;2024-01-30T06:07:39;20.88;;;9.90;;
74375;SDS011;62812;55.188;61.302;2024-01-30T06:10:06;21.00;;;8.98;;
74375;SDS011;62812;55.188;61.302;2024-01-30T06:12:34;16.27;;;7.32;;
74375;SDS011;62812;55.188;61.302;2024-01-30T06:15:01;16.65;;;6.70;;
74375;SDS011;62812;55.188;61.302;2024-01-30T06:17:28;20.77;;;7.03;;
74375;SDS011;62812;55.188;61.302;2024-01-30T06:19:54;18.30;;;8.30;;
74375;SDS011;62812;55.188;61.302;2024-01-30T06:22:22;23.63;;;8.30;;
74375;SDS011;62812;55.188;61.302;2024-01-30T06:24:49;15.20;;;6.80;;
74375;SDS011;62812;55.188;61.302;2024-01-30T06:27:15;18.45;;;6.70;;
74375;SDS011;62812;55.188;61.302;2024-01-30T06:29:43;15.15;;;6.15;;
74375;SDS011;62812;55.188;61.302;2024-01-30T06:32:11;17.73;;;6.65;;
74375;SDS011;62812;55.188;61.302;2024-01-30T06:34:38;15.45;;;6.03;;
74375;SDS011;62812;55.188;61.302;2024-01-30T06:37:05;18.92;;;5.90;;
74375;SDS011;62812;55.188;61.302;2024-01-30T06:39:33;17.05;;;6.20;;
74375;SDS011;62812;55.188;61.302;2024-01-30T06:42:00;14.00;;;5.68;;
74375;SDS011;62812;55.188;61.302;2024-01-30T06:44:26;14.40;;;5.68;;
74375;SDS011;62812;55.188;61.302;2024-01-30T06:46:52;14.43;;;5.93;;
74375;SDS011;62812;55.188;61.302;2024-01-30T06:49:20;13.50;;;5.57;;
74375;SDS011;62812;55.188;61.302;2024-01-30T06:51:48;11.60;;;5.05;;
74375;SDS011;62812;55.188;61.302;2024-01-30T06:54:15;12.27;;;5.32;;
74375;SDS011;62812;55.188;61.302;2024-01-30T06:56:43;12.15;;;5.18;;
74375;SDS011;62812;55.188;61.302;2024-01-30T06:59:09;13.93;;;5.72;;
74375;SDS011;62812;55.188;61.302;2024-01-30T07:01:36;11.55;;;5.10;;
74375;SDS011;62812;55.188;61.302;2024-01-30T07:04:02;12.38;;;5.03;;
74375;SDS011;62812;55.188;61.302;2024-01-30T07:06:29;14.48;;;4.45;;
74375;SDS011;62812;55.188;61.302;2024-01-30T07:08:55;12.95;;;4.75;;
74375;SDS011;62812;55.188;61.302;2024-01-30T07:11:22;11.45;;;4.57;;
74375;SDS011;62812;55.188;61.302;2024-01-30T07:13:51;10.15;;;3.85;;
74375;SDS011;62812;55.188;61.302;2024-01-30T07:16:18;9.85;;;4.03;;
74375;SDS011;62812;55.188;61.302;2024-01-30T07:18:48;13.55;;;6.15;;
74375;SDS011;62812;55.188;61.302;2024-01-30T07:21:14;11.50;;;4.78;;
74375;SDS011;62812;55.188;61.302;2024-01-30T07:23:42;9.13;;;3.75;;
74375;SDS011;62812;55.188;61.302;2024-01-30T07:26:08;10.23;;;4.00;;
74375;SDS011;62812;55.188;61.302;2024-01-30T07:28:42;9.43;;;4.25;;
74375;SDS011;62812;55.188;61.302;2024-01-30T07:31:14;11.75;;;4.22;;
74375;SDS011;62812;55.188;61.302;2024-01-30T07:33:40;10.13;;;4.03;;
74375;SDS011;62812;55.188;61.302;2024-01-30T07:36:07;8.95;;;3.60;;
74375;SDS011;62812;55.188;61.302;2024-01-30T07:38:36;11.55;;;3.60;;
74375;SDS011;62812;55.188;61.302;2024-01-30T07:41:02;12.35;;;5.55;;
74375;SDS011;62812;55.188;61.302;2024-01-30T07:43:30;11.75;;;5.10;;
74375;SDS011;62812;55.188;61.302;2024-01-30T07:45:57;11.38;;;5.00;;
74375;SDS011;62812;55.188;61.302;2024-01-30T07:48:34;8.73;;;3.97;;
74375;SDS011;62812;55.188;61.302;2024-01-30T07:54:24;12.32;;;4.38;;
74375;SDS011;62812;55.188;61.302;2024-01-30T07:57:05;10.25;;;3.92;;
74375;SDS011;62812;55.188;61.302;2024-01-30T07:59:32;10.05;;;3.65;;
74375;SDS011;62812;55.188;61.302;2024-01-30T08:02:01;9.82;;;4.13;;
74375;SDS011;62812;55.188;61.302;2024-01-30T08:04:31;15.90;;;4.47;;
74375;SDS011;62812;55.188;61.302;2024-01-30T08:06:57;9.07;;;3.55;;
74375;SDS011;62812;55.188;61.302;2024-01-30T08:09:27;11.00;;;4.22;;
74375;SDS011;62812;55.188;61.302;2024-01-30T08:11:53;9.40;;;3.83;;
74375;SDS011;62812;55.188;61.302;2024-01-30T08:14:20;10.88;;;3.63;;
74375;SDS011;62812;55.188;61.302;2024-01-30T08:16:46;9.55;;;3.58;;
74375;SDS011;62812;55.188;61.302;2024-01-30T08:19:19;8.75;;;3.15;;
74375;SDS011;62812;55.188;61.302;2024-01-30T08:21:47;6.22;;;2.47;;
74375;SDS011;62812;55.188;61.302;2024-01-30T08:24:23;7.57;;;2.65;;
74375;SDS011;62812;55.188;61.302;2024-01-30T08:26:49;7.28;;;2.30;;
74375;SDS011;62812;55.188;61.302;2024-01-30T08:29:15;6.57;;;2.22;;
74375;SDS011;62812;55.188;61.302;2024-01-30T08:32:08;6.07;;;2.58;;
74375;SDS011;62812;55.188;61.302;2024-01-30T08:34:35;6.93;;;2.38;;
74375;SDS011;62812;55.188;61.302;2024-01-30T08:37:03;7.88;;;2.80;;
74375;SDS011;62812;55.188;61.302;2024-01-30T08:39:31;8.25;;;2.70;;
74375;SDS011;62812;55.188;61.302;2024-01-30T08:41:58;6.15;;;2.30;;
74375;SDS011;62812;55.188;61.302;2024-01-30T08:44:24;6.30;;;2.22;;
74375;SDS011;62812;55.188;61.302;2024-01-30T08:46:57;8.25;;;2.70;;
74375;SDS011;62812;55.188;61.302;2024-01-30T08:49:23;6.53;;;2.53;;
74375;SDS011;62812;55.188;61.302;2024-01-30T08:51:50;4.63;;;1.70;;
74375;SDS011;62812;55.188;61.302;2024-01-30T08:54:18;7.03;;;2.85;;
74375;SDS011;62812;55.188;61.302;2024-01-30T08:56:44;4.35;;;1.60;;
74375;SDS011;62812;55.188;61.302;2024-01-30T09:03:10;7.20;;;2.50;;
74375;SDS011;62812;55.188;61.302;2024-01-30T09:05:42;10.90;;;2.88;;
74375;SDS011;62812;55.188;61.302;2024-01-30T09:14:39;6.75;;;2.33;;
74375;SDS011;62812;55.188;61.302;2024-01-30T09:17:14;4.95;;;2.03;;
74375;SDS011;62812;55.188;61.302;2024-01-30T09:22:35;5.05;;;1.85;;
74375;SDS011;62812;55.188;61.302;2024-01-30T09:25:01;5.72;;;2.40;;
74375;SDS011;62812;55.188;61.302;2024-01-30T09:27:31;6.45;;;2.58;;
74375;SDS011;62812;55.188;61.302;2024-01-30T09:29:59;5.50;;;1.90;;
74375;SDS011;62812;55.188;61.302;2024-01-30T09:32:26;7.03;;;2.72;;
74375;SDS011;62812;55.188;61.302;2024-01-30T09:34:55;8.07;;;2.83;;
74375;SDS011;62812;55.188;61.302;2024-01-30T09:37:25;9.95;;;3.30;;
74375;SDS011;62812;55.188;61.302;2024-01-30T09:39:51;9.30;;;3.35;;
74375;SDS011;62812;55.188;61.302;2024-01-30T09:42:24;6.38;;;2.35;;
74375;SDS011;62812;55.188;61.302;2024-01-30T09:45:25;8.27;;;3.47;;
74375;SDS011;62812;55.188;61.302;2024-01-30T09:47:53;5.95;;;1.73;;
74375;SDS011;62812;55.188;61.302;2024-01-30T09:50:20;4.32;;;1.58;;
74375;SDS011;62812;55.188;61.302;2024-01-30T09:52:47;7.55;;;3.42;;
74375;SDS011;62812;55.188;61.302;2024-01-30T09:55:15;9.20;;;3.13;;
74375;SDS011;62812;55.188;61.302;2024-01-30T09:57:42;5.78;;;1.88;;
74375;SDS011;62812;55.188;61.302;2024-01-30T10:00:10;7.35;;;2.80;;
74375;SDS011;62812;55.188;61.302;2024-01-30T10:02:42;7.63;;;2.95;;
74375;SDS011;62812;55.188;61.302;2024-01-30T10:05:13;13.52;;;5.13;;
74375;SDS011;62812;55.188;61.302;2024-01-30T10:07:52;8.60;;;2.88;;
74375;SDS011;62812;55.188;61.302;2024-01-30T10:10:25;11.45;;;5.18;;
74375;SDS011;62812;55.188;61.302;2024-01-30T10:12:57;8.25;;;4.00;;
74375;SDS011;62812;55.188;61.302;2024-01-30T10:15:24;12.20;;;3.97;;
74375;SDS011;62812;55.188;61.302;2024-01-30T10:17:58;12.38;;;4.20;;
74375;SDS011;62812;55.188;61.302;2024-01-30T10:20:27;9.90;;;4.00;;
74375;SDS011;62812;55.188;61.302;2024-01-30T10:22:53;9.23;;;4.03;;
74375;SDS011;62812;55.188;61.302;2024-01-30T10:25:28;9.55;;;3.40;;
74375;SDS011;62812;55.188;61.302;2024-01-30T10:28:08;8.73;;;3.80;;
74375;SDS011;62812;55.188;61.302;2024-01-30T10:31:17;9.30;;;3.80;;
74375;SDS011;62812;55.188;61.302;2024-01-30T10:34:09;10.20;;;3.50;;
74375;SDS011;62812;55.188;61.302;2024-01-30T10:36:37;8.38;;;3.30;;
74375;SDS011;62812;55.188;61.302;2024-01-30T10:39:11;12.50;;;3.60;;
74375;SDS011;62812;55.188;61.302;2024-01-30T10:41:45;14.57;;;3.25;;
74375;SDS011;62812;55.188;61.302;2024-01-30T10:44:16;10.15;;;2.95;;
74375;SDS011;62812;55.188;61.302;2024-01-30T10:46:56;8.05;;;3.60;;
74375;SDS011;62812;55.188;61.302;2024-01-30T10:54:12;11.50;;;3.40;;
74375;SDS011;62812;55.188;61.302;2024-01-30T10:56:39;9.15;;;3.70;;
74375;SDS011;62812;55.188;61.302;2024-01-30T10:59:15;6.85;;;3.17;;
74375;SDS011;62812;55.188;61.302;2024-01-30T11:05:28;9.85;;;4.05;;
74375;SDS011;62812;55.188;61.302;2024-01-30T11:08:12;8.95;;;3.58;;
74375;SDS011;62812;55.188;61.302;2024-01-30T11:17:30;11.82;;;4.43;;
74375;SDS011;62812;55.188;61.302;2024-01-30T11:20:14;7.60;;;3.42;;
74375;SDS011;62812;55.188;61.302;2024-01-30T11:25:52;9.45;;;3.38;;
74375;SDS011;62812;55.188;61.302;2024-01-30T11:28:32;14.05;;;5.90;;
74375;SDS011;62812;55.188;61.302;2024-01-30T11:34:21;8.30;;;3.63;;
74375;SDS011;62812;55.188;61.302;2024-01-30T11:37:09;8.38;;;3.60;;
74375;SDS011;62812;55.188;61.302;2024-01-30T11:43:08;7.05;;;2.90;;
74375;SDS011;62812;55.188;61.302;2024-01-30T11:45:45;9.40;;;3.85;;
74375;SDS011;62812;55.188;61.302;2024-01-30T11:48:28;8.25;;;3.30;;
74375;SDS011;62812;55.188;61.302;2024-01-30T11:51:01;6.63;;;3.30;;
74375;SDS011;62812;55.188;61.302;2024-01-30T11:53:28;9.25;;;3.75;;
74375;SDS011;62812;55.188;61.302;2024-01-30T11:56:00;12.07;;;4.90;;
74375;SDS011;62812;55.188;61.302;2024-01-30T12:02:08;16.95;;;3.45;;
74375;SDS011;62812;55.188;61.302;2024-01-30T12:04:43;12.80;;;4.45;;
74375;SDS011;62812;55.188;61.302;2024-01-30T12:07:19;5.78;;;2.40;;
74375;SDS011;62812;55.188;61.302;2024-01-30T12:09:52;12.73;;;5.45;;
74375;SDS011;62812;55.188;61.302;2024-01-30T12:12:27;12.52;;;5.22;;
74375;SDS011;62812;55.188;61.302;2024-01-30T12:15:01;12.25;;;5.15;;
74375;SDS011;62812;55.188;61.302;2024-01-30T12:17:30;13.07;;;5.85;;
74375;SDS011;62812;55.188;61.302;2024-01-30T12:20:04;16.85;;;5.35;;
74375;SDS011;62812;55.188;61.302;2024-01-30T12:22:35;11.55;;;4.13;;
74375;SDS011;62812;55.188;61.302;2024-01-30T12:25:03;14.18;;;5.15;;
74375;SDS011;62812;55.188;61.302;2024-01-30T12:27:31;18.40;;;5.60;;
74375;SDS011;62812;55.188;61.302;2024-01-30T12:29:58;12.40;;;5.30;;
74375;SDS011;62812;55.188;61.302;2024-01-30T12:32:27;10.57;;;4.88;;
74375;SDS011;62812;55.188;61.302;2024-01-30T12:34:55;13.52;;;5.32;;
74375;SDS011;62812;55.188;61.302;2024-01-30T12:37:23;15.05;;;5.57;;
74375;SDS011;62812;55.188;61.302;2024-01-30T12:39:52;15.05;;;4.53;;
74375;SDS011;62812;55.188;61.302;2024-01-30T12:42:22;15.80;;;4.97;;
74375;SDS011;62812;55.188;61.302;2024-01-30T12:44:53;18.83;;;8.13;;
74375;SDS011;62812;55.188;61.302;2024-01-30T12:47:23;15.77;;;6.82;;
74375;SDS011;62812;55.188;61.302;2024-01-30T12:50:01;13.73;;;5.30;;
74375;SDS011;62812;55.188;61.302;2024-01-30T12:52:38;14.00;;;4.90;;
74375;SDS011;62812;55.188;61.302;2024-01-30T12:55:06;15.05;;;5.35;;
74375;SDS011;62812;55.188;61.302;2024-01-30T13:00:05;12.35;;;4.65;;
74375;SDS011;62812;55.188;61.302;2024-01-30T13:02:34;15.52;;;5.57;;
74375;SDS011;62812;55.188;61.302;2024-01-30T13:05:02;11.55;;;4.75;;
74375;SDS011;62812;55.188;61.302;2024-01-30T13:07:30;12.98;;;4.85;;
74375;SDS011;62812;55.188;61.302;2024-01-30T13:09:56;10.93;;;4.22;;
74375;SDS011;62812;55.188;61.302;2024-01-30T13:12:30;9.88;;;3.97;;
74375;SDS011;62812;55.188;61.302;2024-01-30T13:15:00;13.52;;;5.03;;
74375;SDS011;62812;55.188;61.302;2024-01-30T13:17:27;10.82;;;4.75;;
74375;SDS011;62812;55.188;61.302;2024-01-30T13:19:54;11.27;;;3.08;;
74375;SDS011;62812;55.188;61.302;2024-01-30T13:22:21;10.30;;;4.53;;
74375;SDS011;62812;55.188;61.302;2024-01-30T13:24:47;11.80;;;5.03;;
74375;SDS011;62812;55.188;61.302;2024-01-30T13:27:14;12.15;;;5.35;;
74375;SDS011;62812;55.188;61.302;2024-01-30T13:29:42;10.95;;;4.78;;
74375;SDS011;62812;55.188;61.302;2024-01-30T13:32:09;12.32;;;5.32;;
74375;SDS011;62812;55.188;61.302;2024-01-30T13:34:35;10.88;;;5.32;;
74375;SDS011;62812;55.188;61.302;2024-01-30T13:37:02;13.70;;;5.43;;
74375;SDS011;62812;55.188;61.302;2024-01-30T13:39:29;11.65;;;4.32;;
74375;SDS011;62812;55.188;61.302;2024-01-30T13:41:56;13.18;;;5.32;;
74375;SDS011;62812;55.188;61.302;2024-01-30T13:44:23;15.15;;;5.20;;
74375;SDS011;62812;55.188;61.302;2024-01-30T13:46:51;13.38;;;4.90;;
74375;SDS011;62812;55.188;61.302;2024-01-30T13:49:17;12.57;;;5.25;;
74375;SDS011;62812;55.188;61.302;2024-01-30T13:51:44;14.77;;;5.70;;
74375;SDS011;62812;55.188;61.302;2024-01-30T13:54:11;12.57;;;5.35;;
74375;SDS011;62812;55.188;61.302;2024-01-30T13:56:38;19.60;;;6.32;;
74375;SDS011;62812;55.188;61.302;2024-01-30T13:59:05;15.43;;;6.63;;
74375;SDS011;62812;55.188;61.302;2024-01-30T14:01:31;17.08;;;6.25;;
74375;SDS011;62812;55.188;61.302;2024-01-30T14:04:01;19.00;;;6.55;;
74375;SDS011;62812;55.188;61.302;2024-01-30T14:06:28;12.18;;;6.25;;
74375;SDS011;62812;55.188;61.302;2024-01-30T14:08:55;16.02;;;6.85;;
74375;SDS011;62812;55.188;61.302;2024-01-30T14:11:21;18.33;;;7.80;;
74375;SDS011;62812;55.188;61.302;2024-01-30T14:13:51;11.55;;;5.65;;
74375;SDS011;62812;55.188;61.302;2024-01-30T14:16:18;17.33;;;7.28;;
74375;SDS011;62812;55.188;61.302;2024-01-30T14:18:45;15.73;;;5.43;;
74375;SDS011;62812;55.188;61.302;2024-01-30T14:21:13;17.63;;;6.93;;
74375;SDS011;62812;55.188;61.302;2024-01-30T14:23:40;17.10;;;6.50;;
74375;SDS011;62812;55.188;61.302;2024-01-30T14:26:07;16.55;;;7.38;;
74375;SDS011;62812;55.188;61.302;2024-01-30T14:28:34;12.05;;;5.63;;
74375;SDS011;62812;55.188;61.302;2024-01-30T14:31:09;15.02;;;6.05;;
74375;SDS011;62812;55.188;61.302;2024-01-30T14:33:37;13.43;;;4.85;;
74375;SDS011;62812;55.188;61.302;2024-01-30T14:36:16;18.98;;;7.05;;
74375;SDS011;62812;55.188;61.302;2024-01-30T14:39:50;22.65;;;7.00;;
74375;SDS011;62812;55.188;61.302;2024-01-30T14:42:18;15.13;;;5.90;;
74375;SDS011;62812;55.188;61.302;2024-01-30T14:44:44;15.25;;;6.88;;
74375;SDS011;62812;55.188;61.302;2024-01-30T14:47:11;18.85;;;6.38;;
74375;SDS011;62812;55.188;61.302;2024-01-30T14:49:39;16.13;;;7.15;;
74375;SDS011;62812;55.188;61.302;2024-01-30T14:52:10;16.00;;;6.45;;
74375;SDS011;62812;55.188;61.302;2024-01-30T14:54:41;17.58;;;6.30;;
74375;SDS011;62812;55.188;61.302;2024-01-30T14:57:12;20.95;;;7.38;;
74375;SDS011;62812;55.188;61.302;2024-01-30T14:59:40;13.80;;;6.18;;
74375;SDS011;62812;55.188;61.302;2024-01-30T15:02:07;22.27;;;6.97;;
74375;SDS011;62812;55.188;61.302;2024-01-30T15:04:35;19.20;;;6.50;;
74375;SDS011;62812;55.188;61.302;2024-01-30T15:07:02;17.67;;;6.90;;
74375;SDS011;62812;55.188;61.302;2024-01-30T15:09:30;16.95;;;6.90;;
74375;SDS011;62812;55.188;61.302;2024-01-30T15:11:58;14.48;;;6.28;;
74375;SDS011;62812;55.188;61.302;2024-01-30T15:14:32;30.75;;;11.93;;
74375;SDS011;62812;55.188;61.302;2024-01-30T15:17:09;22.33;;;8.45;;
74375;SDS011;62812;55.188;61.302;2024-01-30T15:29:39;18.67;;;7.43;;
74375;SDS011;62812;55.188;61.302;2024-01-30T15:43:57;15.60;;;6.90;;